Terminal Aerodrome Forecast
Issued by NWS Sterling, VA

Current Version | Previous Version | Graphics & Text | Print | Product List | Glossary On
Versions: 1 2 3 4 5 6 7 8 9 10 11 12 13 14 15 16 17 18 19 20 21 22 23 24 25 26
000
FTUS41 KLWX 242200 AAB
TAFDCA
TAF AMD
KDCA 242219Z 2422/2518 19010KT 4SM BR OVC003 WS020/22045KT
      TEMPO 2422/2502 VRB04KT 1SM -RA BR
     FM250500 24012KT 4SM -SHRA BR BKN020 OVC040 WS020/26040KT
     FM250900 30014KT P6SM SCT070 BKN120
     FM251400 29014G24KT P6SM SCT040=

USA.gov is the U.S. government's official web portal to all federal, state and local government web resources and services.